Time;durP1;ratioP1;P1;durP2;ratioP2;P2;SDS_P1;SDS_P2;PMS_P1;PMS_P2;Temp;Humidity;BMP_temperature;BMP_pressure;BME280_temperature;BME280_humidity;BME280_pressure;Samples;Min_cycle;Max_cycle;Signal;HPM_P1;HPM_P2
2021/11/21 00:02:04;;;;;;;25.90;12.38;;;2.30;99.90;;;;;;5072924;28;20161;-78
2021/11/21 00:04:30;;;;;;;21.63;10.05;;;2.30;99.90;;;;;;5071405;28;20196;-78
2021/11/21 00:06:56;;;;;;;15.43;9.75;;;2.40;99.90;;;;;;5072312;28;20188;-78
2021/11/21 00:09:22;;;;;;;16.83;9.93;;;2.40;99.90;;;;;;5071701;28;20156;-78
2021/11/21 00:11:48;;;;;;;16.80;9.55;;;2.30;99.90;;;;;;5070566;28;20179;-78
2021/11/21 00:14:15;;;;;;;17.38;10.45;;;2.20;99.90;;;;;;5072773;28;20153;-78
2021/11/21 00:16:41;;;;;;;18.35;11.75;;;2.20;99.90;;;;;;5072595;28;20216;-78
2021/11/21 00:19:08;;;;;;;21.00;11.93;;;2.10;99.90;;;;;;5072602;28;20168;-78
2021/11/21 00:21:34;;;;;;;20.13;11.77;;;2.10;99.90;;;;;;5072715;28;20164;-78
2021/11/21 00:24:00;;;;;;;22.38;12.10;;;2.00;99.90;;;;;;5072633;28;20161;-77
2021/11/21 00:26:26;;;;;;;24.60;14.18;;;2.00;99.90;;;;;;5072471;28;20215;-77
2021/11/21 00:28:52;;;;;;;26.58;15.05;;;1.90;99.90;;;;;;5071196;28;20165;-78
2021/11/21 00:31:21;;;;;;;33.00;15.80;;;1.80;99.90;;;;;;5072502;28;20161;-79
2021/11/21 00:33:47;;;;;;;27.40;16.30;;;1.70;99.90;;;;;;5072394;28;20150;-78
2021/11/21 00:36:13;;;;;;;21.55;13.40;;;1.70;99.90;;;;;;5072324;28;20657;-79
2021/11/21 00:38:39;;;;;;;21.90;13.15;;;1.70;99.90;;;;;;5071025;28;20253;-78
2021/11/21 00:41:05;;;;;;;22.02;14.25;;;1.60;99.90;;;;;;5072311;28;20148;-79
2021/11/21 00:43:33;;;;;;;22.92;14.30;;;1.70;99.90;;;;;;5072319;28;20160;-79
2021/11/21 00:46:00;;;;;;;20.48;14.40;;;1.70;99.90;;;;;;5070768;28;20197;-79
2021/11/21 00:48:28;;;;;;;24.88;15.73;;;1.70;99.90;;;;;;5072046;28;20201;-79
2021/11/21 00:50:59;;;;;;;22.10;13.60;;;1.70;99.90;;;;;;5070810;28;20168;-79
2021/11/21 00:53:25;;;;;;;23.52;13.40;;;1.70;99.90;;;;;;5071981;28;20236;-79
2021/11/21 00:55:54;;;;;;;27.80;14.75;;;1.70;99.90;;;;;;5070371;28;20196;-79
2021/11/21 00:58:21;;;;;;;21.38;12.93;;;1.70;99.90;;;;;;5071977;28;20688;-79
2021/11/21 01:00:50;;;;;;;26.90;15.05;;;1.70;99.90;;;;;;5071898;28;20161;-79
2021/11/21 01:03:19;;;;;;;28.73;13.82;;;1.70;99.90;;;;;;5070542;28;20172;-79
2021/11/21 01:05:47;;;;;;;21.55;13.52;;;1.60;99.90;;;;;;5071390;28;20227;-79
2021/11/21 01:08:13;;;;;;;21.90;13.65;;;1.60;99.90;;;;;;5070353;28;20207;-79
2021/11/21 01:10:41;;;;;;;23.70;14.35;;;1.60;99.90;;;;;;5071713;28;20240;-77
2021/11/21 01:13:07;;;;;;;23.77;14.35;;;1.40;99.90;;;;;;5070483;28;20185;-77
2021/11/21 01:15:34;;;;;;;26.35;15.02;;;1.50;99.90;;;;;;5071516;28;20220;-77
2021/11/21 01:18:01;;;;;;;21.65;14.05;;;1.40;99.90;;;;;;5071584;28;20164;-77
2021/11/21 01:20:30;;;;;;;24.08;15.70;;;1.20;99.90;;;;;;5071495;28;20157;-77
2021/11/21 01:22:56;;;;;;;30.85;15.90;;;1.30;99.90;;;;;;5070170;28;20172;-78
2021/11/21 01:25:23;;;;;;;27.60;16.67;;;1.20;99.90;;;;;;5070051;28;20260;-77
2021/11/21 01:27:49;;;;;;;30.38;16.60;;;1.10;99.90;;;;;;5069968;28;20234;-77
2021/11/21 01:30:21;;;;;;;25.67;15.27;;;1.00;99.90;;;;;;5070130;28;20175;-78
2021/11/21 01:32:50;;;;;;;23.00;14.10;;;1.10;99.90;;;;;;5071344;28;20170;-78
2021/11/21 01:35:16;;;;;;;25.33;15.40;;;1.20;99.90;;;;;;5069797;28;20196;-79
2021/11/21 01:37:43;;;;;;;24.65;14.35;;;1.10;99.90;;;;;;5071322;28;20628;-78
2021/11/21 01:40:11;;;;;;;22.77;13.27;;;1.10;99.90;;;;;;5069948;28;20172;-78
2021/11/21 01:42:38;;;;;;;23.33;14.70;;;1.10;99.90;;;;;;5069840;28;20173;-77
2021/11/21 01:45:05;;;;;;;21.02;14.65;;;1.10;99.90;;;;;;5069680;28;20196;-77
2021/11/21 01:47:34;;;;;;;20.00;13.82;;;1.10;99.90;;;;;;5071004;28;20195;-77
2021/11/21 01:50:00;;;;;;;20.67;13.35;;;0.90;99.90;;;;;;5069667;28;20622;-76
2021/11/21 01:52:26;;;;;;;24.67;13.68;;;0.80;99.90;;;;;;5070904;28;20159;-76
2021/11/21 01:54:52;;;;;;;22.92;13.77;;;0.70;99.90;;;;;;5070831;28;20200;-75
2021/11/21 01:57:18;;;;;;;33.70;13.52;;;0.70;99.90;;;;;;5070615;28;20248;-76
2021/11/21 01:59:45;;;;;;;20.17;11.95;;;0.60;99.90;;;;;;5069492;28;20168;-76
2021/11/21 02:02:10;;;;;;;19.98;11.15;;;0.40;99.90;;;;;;5070798;28;20165;-76
2021/11/21 02:04:36;;;;;;;20.83;13.30;;;0.40;99.90;;;;;;5069232;28;20255;-76
2021/11/21 02:07:02;;;;;;;25.33;14.82;;;0.50;99.90;;;;;;5069176;28;20196;-76
2021/11/21 02:09:28;;;;;;;21.63;12.20;;;0.70;99.90;;;;;;5069192;28;20196;-76
2021/11/21 02:11:55;;;;;;;20.55;13.05;;;0.70;99.90;;;;;;5070469;28;20161;-76
2021/11/21 02:14:21;;;;;;;18.17;11.60;;;0.70;99.90;;;;;;5069104;28;20196;-76
2021/11/21 02:16:47;;;;;;;19.67;13.13;;;0.80;99.90;;;;;;5069280;28;20199;-76
2021/11/21 02:19:16;;;;;;;30.60;13.00;;;0.80;99.90;;;;;;5070307;28;20180;-76
2021/11/21 02:21:42;;;;;;;30.05;13.32;;;0.80;99.90;;;;;;5068979;28;20173;-76
2021/11/21 02:24:08;;;;;;;19.25;13.15;;;0.70;99.90;;;;;;5070126;28;20204;-76
2021/11/21 02:26:34;;;;;;;28.55;14.52;;;0.70;99.90;;;;;;5068730;28;20204;-76
2021/11/21 02:29:00;;;;;;;24.98;14.20;;;0.70;99.90;;;;;;5070170;28;20185;-76
2021/11/21 02:31:29;;;;;;;19.17;13.57;;;0.60;99.90;;;;;;5070008;28;20168;-78
2021/11/21 02:33:56;;;;;;;24.77;16.05;;;0.60;99.90;;;;;;5070120;28;20239;-76
2021/11/21 02:36:23;;;;;;;23.40;14.18;;;0.60;99.90;;;;;;5068561;28;20199;-76
2021/11/21 02:38:49;;;;;;;20.73;13.07;;;0.70;99.90;;;;;;5069875;28;20157;-78
2021/11/21 02:41:15;;;;;;;24.00;15.82;;;0.90;99.90;;;;;;5068732;28;20356;-78
2021/11/21 02:43:43;;;;;;;28.48;15.15;;;0.90;99.90;;;;;;5068647;28;20169;-77
2021/11/21 02:46:10;;;;;;;28.05;13.48;;;0.90;99.90;;;;;;5068423;28;20196;-77
2021/11/21 02:48:38;;;;;;;20.83;14.52;;;0.90;99.90;;;;;;5069778;28;20153;-77
2021/11/21 02:51:07;;;;;;;22.50;13.80;;;0.80;99.90;;;;;;5069642;28;20157;-77
2021/11/21 02:53:34;;;;;;;20.35;13.55;;;0.80;99.90;;;;;;5069735;28;20187;-79
2021/11/21 02:56:04;;;;;;;22.00;15.05;;;0.80;99.90;;;;;;5069487;28;20334;-78
2021/11/21 02:58:33;;;;;;;22.13;12.35;;;0.90;99.90;;;;;;5068194;28;20594;-78
2021/11/21 03:01:11;;;;;;;22.17;12.82;;;1.00;99.90;;;;;;5068219;28;20169;-77
2021/11/21 03:03:37;;;;;;;22.27;13.65;;;1.10;99.90;;;;;;5069469;28;20243;-77
2021/11/21 03:06:03;;;;;;;20.23;12.60;;;1.20;99.90;;;;;;5055296;28;20201;-77
2021/11/21 03:08:29;;;;;;;20.95;13.63;;;1.30;99.90;;;;;;5048272;28;20204;-78
2021/11/21 03:10:56;;;;;;;20.17;11.60;;;1.30;99.90;;;;;;5049610;28;20527;-77
2021/11/21 03:13:22;;;;;;;18.85;12.30;;;1.40;99.90;;;;;;5048451;28;20165;-77
2021/11/21 03:15:48;;;;;;;25.38;13.30;;;1.30;99.90;;;;;;5048236;28;20708;-77
2021/11/21 03:18:14;;;;;;;21.80;13.43;;;1.40;99.90;;;;;;5049593;28;20169;-77
2021/11/21 03:20:41;;;;;;;23.80;13.32;;;1.50;99.90;;;;;;5049576;28;20220;-77
2021/11/21 03:23:07;;;;;;;22.42;13.50;;;1.50;99.90;;;;;;5049661;28;20166;-77
2021/11/21 03:25:34;;;;;;;22.42;12.48;;;1.50;99.90;;;;;;5049494;28;20243;-78
2021/11/21 03:28:03;;;;;;;28.50;14.35;;;1.50;99.90;;;;;;5049182;28;20189;-77
2021/11/21 03:30:29;;;;;;;33.28;14.90;;;1.40;99.90;;;;;;5049422;28;20154;-78
2021/11/21 03:32:55;;;;;;;23.73;13.20;;;1.40;99.90;;;;;;5049336;28;20217;-78
2021/11/21 03:35:22;;;;;;;25.90;14.23;;;1.30;99.90;;;;;;5047971;28;20197;-78
2021/11/21 03:37:48;;;;;;;26.27;14.90;;;1.40;99.90;;;;;;5049348;28;20157;-77
2021/11/21 03:40:17;;;;;;;24.10;15.23;;;1.40;99.90;;;;;;5047969;28;20169;-78
2021/11/21 03:42:43;;;;;;;27.77;15.40;;;1.60;99.90;;;;;;5048029;28;20165;-77
2021/11/21 03:45:11;;;;;;;24.45;13.95;;;1.60;99.90;;;;;;5047823;28;20251;-77
2021/11/21 03:47:37;;;;;;;20.90;12.45;;;1.50;99.90;;;;;;5049025;28;20323;-77
2021/11/21 03:50:04;;;;;;;20.70;12.75;;;1.50;99.90;;;;;;5049196;28;20153;-77
2021/11/21 03:52:30;;;;;;;38.42;14.40;;;1.60;99.90;;;;;;5049052;28;20277;-77
2021/11/21 03:54:56;;;;;;;22.92;12.90;;;1.40;99.90;;;;;;5049047;28;20192;-76
2021/11/21 03:57:22;;;;;;;33.50;13.10;;;1.30;99.90;;;;;;5048877;28;20307;-77
2021/11/21 03:59:48;;;;;;;23.05;13.38;;;1.20;99.90;;;;;;5048898;28;20228;-76
2021/11/21 04:02:14;;;;;;;22.80;12.27;;;1.10;99.90;;;;;;5048520;28;20191;-77
2021/11/21 04:04:40;;;;;;;19.00;12.32;;;1.20;99.90;;;;;;5048955;28;20161;-77
2021/11/21 04:07:06;;;;;;;27.55;12.82;;;1.20;99.90;;;;;;5047608;28;20197;-79
2021/11/21 04:09:32;;;;;;;23.05;13.77;;;1.30;99.90;;;;;;5047785;28;20690;-78
2021/11/21 04:11:58;;;;;;;27.50;12.55;;;1.50;99.90;;;;;;5048882;28;20192;-77
2021/11/21 04:14:24;;;;;;;20.67;12.63;;;1.50;99.90;;;;;;5047425;28;20157;-77
2021/11/21 04:16:50;;;;;;;22.20;13.20;;;1.60;99.90;;;;;;5048811;28;20193;-79
2021/11/21 04:19:16;;;;;;;21.65;12.38;;;1.60;99.90;;;;;;5047462;28;20232;-79
2021/11/21 04:21:42;;;;;;;24.40;12.70;;;1.70;99.90;;;;;;5048907;28;20533;-79
2021/11/21 04:24:12;;;;;;;24.10;13.07;;;1.70;99.90;;;;;;5048759;28;20150;-80
2021/11/21 04:26:40;;;;;;;24.48;11.90;;;1.70;99.90;;;;;;5048745;28;20227;-80
2021/11/21 04:29:06;;;;;;;32.38;14.85;;;1.80;99.90;;;;;;5047482;28;20634;-80
2021/11/21 04:31:32;;;;;;;21.60;13.27;;;1.70;99.90;;;;;;5048604;28;20276;-79
2021/11/21 04:33:58;;;;;;;25.85;14.27;;;1.60;99.90;;;;;;5047474;28;20169;-79
2021/11/21 04:36:24;;;;;;;21.88;12.90;;;1.70;99.90;;;;;;5047400;28;20267;-78
2021/11/21 04:38:50;;;;;;;23.83;14.00;;;1.70;99.90;;;;;;5047860;28;20196;-79
2021/11/21 04:41:16;;;;;;;21.23;13.48;;;1.80;99.90;;;;;;5051140;28;20196;-79
2021/11/21 04:43:41;;;;;;;28.00;12.52;;;1.80;99.90;;;;;;5051067;28;20169;-79
2021/11/21 04:46:07;;;;;;;21.70;13.52;;;1.60;99.90;;;;;;5052261;28;20197;-79
2021/11/21 04:48:33;;;;;;;25.40;12.88;;;1.70;99.90;;;;;;5050758;28;20193;-77
2021/11/21 04:50:59;;;;;;;22.33;12.10;;;1.50;99.90;;;;;;5051003;28;20323;-77
2021/11/21 04:53:26;;;;;;;20.27;12.95;;;1.60;99.90;;;;;;5052246;28;20154;-77
2021/11/21 04:55:52;;;;;;;22.85;12.70;;;1.60;99.90;;;;;;5051894;28;20249;-77
2021/11/21 04:58:18;;;;;;;26.13;12.95;;;1.70;99.90;;;;;;5052179;28;20173;-77
2021/11/21 05:00:44;;;;;;;18.73;12.10;;;1.70;99.90;;;;;;5051990;28;20165;-77
2021/11/21 05:03:10;;;;;;;22.75;14.07;;;1.60;99.90;;;;;;5052069;28;20162;-77
2021/11/21 05:05:36;;;;;;;24.60;12.77;;;1.60;99.90;;;;;;5051941;28;20204;-79
2021/11/21 05:08:04;;;;;;;22.77;13.65;;;1.40;99.90;;;;;;5051841;28;20189;-78
2021/11/21 05:10:31;;;;;;;24.38;14.02;;;1.20;99.90;;;;;;5051788;28;20153;-79
2021/11/21 05:12:57;;;;;;;42.35;15.93;;;1.20;99.90;;;;;;5051890;28;20157;-79
2021/11/21 05:15:24;;;;;;;37.97;15.15;;;1.20;99.90;;;;;;5051669;28;20193;-79
2021/11/21 05:17:50;;;;;;;29.33;13.85;;;1.10;99.90;;;;;;5050520;28;20169;-79
2021/11/21 05:20:18;;;;;;;26.92;14.15;;;1.00;99.90;;;;;;5050533;28;20174;-76
2021/11/21 05:22:45;;;;;;;38.05;12.48;;;1.10;99.90;;;;;;5050395;28;20173;-76
2021/11/21 05:25:12;;;;;;;29.23;12.88;;;1.10;99.90;;;;;;5050399;28;20216;-80
2021/11/21 05:27:38;;;;;;;33.00;13.00;;;1.10;99.90;;;;;;5050122;28;20696;-79
2021/11/21 05:30:06;;;;;;;22.75;12.18;;;1.10;99.90;;;;;;5050413;28;20197;-79
2021/11/21 05:32:33;;;;;;;20.65;13.13;;;1.00;99.90;;;;;;5050350;28;20169;-78
2021/11/21 05:34:58;;;;;;;24.35;14.77;;;1.10;99.90;;;;;;5051652;28;20685;-79
2021/11/21 05:37:24;;;;;;;19.95;12.50;;;1.00;99.90;;;;;;5050124;28;20169;-78
2021/11/21 05:39:50;;;;;;;29.10;11.77;;;1.00;99.90;;;;;;5050199;28;20237;-78
2021/11/21 05:42:16;;;;;;;22.27;14.38;;;0.90;99.90;;;;;;5049990;28;20165;-78
2021/11/21 05:44:42;;;;;;;44.25;14.00;;;0.90;99.90;;;;;;5051231;28;20171;-78
2021/11/21 05:47:09;;;;;;;25.58;14.75;;;0.80;99.90;;;;;;5049871;28;20197;-78
2021/11/21 05:49:34;;;;;;;26.77;13.57;;;0.90;99.90;;;;;;5051080;28;20166;-78
2021/11/21 05:52:00;;;;;;;20.92;11.73;;;0.80;99.90;;;;;;5051187;28;20164;-77
2021/11/21 05:54:26;;;;;;;20.20;11.57;;;0.90;99.90;;;;;;5051027;28;20150;-78
2021/11/21 05:56:52;;;;;;;17.08;11.65;;;1.00;99.90;;;;;;5050824;28;20217;-78
2021/11/21 05:59:18;;;;;;;34.53;14.68;;;1.10;99.90;;;;;;5050922;28;20165;-78
2021/11/21 06:01:44;;;;;;;18.77;12.50;;;1.20;99.90;;;;;;5051002;28;20222;-77
2021/11/21 06:04:10;;;;;;;20.05;11.38;;;1.20;99.90;;;;;;5050954;28;20166;-78
2021/11/21 06:06:36;;;;;;;20.40;12.63;;;1.20;99.90;;;;;;5049462;28;20215;-78
2021/11/21 06:09:03;;;;;;;34.33;12.80;;;1.20;99.90;;;;;;5050867;28;20181;-78
2021/11/21 06:11:29;;;;;;;17.85;11.55;;;1.20;99.90;;;;;;5050637;28;20170;-78
2021/11/21 06:13:55;;;;;;;28.05;12.70;;;1.20;99.90;;;;;;5050751;28;20213;-79
2021/11/21 06:16:21;;;;;;;27.13;13.23;;;1.20;99.90;;;;;;5049262;28;20201;-77
2021/11/21 06:18:47;;;;;;;19.95;11.75;;;1.20;99.90;;;;;;5049373;28;20169;-77
2021/11/21 06:21:13;;;;;;;20.98;11.80;;;1.20;99.90;;;;;;5049236;28;20158;-77
2021/11/21 06:23:39;;;;;;;21.05;11.77;;;1.30;99.90;;;;;;5050489;28;20154;-76
2021/11/21 06:26:06;;;;;;;36.72;12.90;;;1.40;99.90;;;;;;5050389;28;20265;-76
2021/11/21 06:28:32;;;;;;;18.58;11.75;;;1.30;99.90;;;;;;5050384;28;20193;-76
2021/11/21 06:30:59;;;;;;;27.65;13.35;;;1.30;99.90;;;;;;5050429;28;20161;-76
2021/11/21 06:33:25;;;;;;;19.67;11.75;;;1.30;99.90;;;;;;5050188;28;20177;-77
2021/11/21 06:35:52;;;;;;;19.33;10.82;;;1.30;99.90;;;;;;5050181;28;20212;-77
2021/11/21 06:38:18;;;;;;;24.77;12.68;;;1.30;99.90;;;;;;5048759;28;20240;-77
2021/11/21 06:40:45;;;;;;;23.42;12.55;;;1.40;99.90;;;;;;5048887;28;20165;-76
2021/11/21 06:43:12;;;;;;;17.33;10.93;;;1.30;99.90;;;;;;5050125;28;20165;-76
2021/11/21 06:45:38;;;;;;;28.50;10.63;;;1.20;99.90;;;;;;5049901;28;20193;-77
2021/11/21 06:48:11;;;;;;;30.63;13.48;;;1.20;99.90;;;;;;5048461;28;20212;-77
2021/11/21 06:50:37;;;;;;;26.50;12.57;;;1.30;99.90;;;;;;5049884;28;20185;-77
2021/11/21 06:53:04;;;;;;;27.17;12.10;;;1.40;99.90;;;;;;5048620;28;20185;-77
2021/11/21 06:55:30;;;;;;;26.02;13.85;;;1.40;99.90;;;;;;5048312;28;20173;-77
2021/11/21 06:57:56;;;;;;;53.45;12.77;;;1.30;99.90;;;;;;5049686;28;20221;-79
2021/11/21 07:00:22;;;;;;;26.70;13.00;;;1.40;99.90;;;;;;5048344;28;20204;-79
2021/11/21 07:02:48;;;;;;;25.10;12.48;;;1.30;99.90;;;;;;5047990;28;20227;-80
2021/11/21 07:05:15;;;;;;;26.20;14.07;;;1.20;99.90;;;;;;5049743;28;20176;-79
2021/11/21 07:07:43;;;;;;;21.38;13.60;;;1.10;99.90;;;;;;5049627;28;20192;-79
2021/11/21 07:10:12;;;;;;;30.77;14.15;;;1.10;99.90;;;;;;5049649;28;20213;-79
2021/11/21 07:12:37;;;;;;;24.08;13.18;;;1.10;99.90;;;;;;5048206;28;20197;-79
2021/11/21 07:15:04;;;;;;;22.38;13.45;;;1.20;99.90;;;;;;5048346;28;20534;-80
2021/11/21 07:17:30;;;;;;;33.10;15.52;;;1.50;99.90;;;;;;5048222;28;20264;-79
2021/11/21 07:19:56;;;;;;;26.23;13.10;;;1.40;99.90;;;;;;5048150;28;20216;-79
2021/11/21 07:22:22;;;;;;;28.20;13.60;;;1.20;99.90;;;;;;5047931;28;20184;-79
2021/11/21 07:24:48;;;;;;;27.67;13.82;;;1.20;99.90;;;;;;5047829;28;20205;-79
2021/11/21 07:27:15;;;;;;;30.13;13.25;;;1.10;99.90;;;;;;5049259;28;20188;-79
2021/11/21 07:29:40;;;;;;;41.03;15.05;;;1.20;99.90;;;;;;5049146;28;20196;-80
2021/11/21 07:32:07;;;;;;;29.73;13.63;;;1.40;99.90;;;;;;5049410;28;20157;-80
2021/11/21 07:34:34;;;;;;;35.28;13.10;;;1.40;99.90;;;;;;5048038;28;20200;-79
2021/11/21 07:37:00;;;;;;;16.90;11.73;;;1.40;99.90;;;;;;5048034;28;20169;-79
2021/11/21 07:39:26;;;;;;;29.88;13.15;;;1.40;99.90;;;;;;5048937;28;20205;-79
2021/11/21 07:41:52;;;;;;;34.17;13.15;;;1.40;99.90;;;;;;5047745;28;20173;-79
2021/11/21 07:44:19;;;;;;;36.90;14.23;;;1.40;99.90;;;;;;5049033;28;20213;-79
2021/11/21 07:46:44;;;;;;;21.60;13.25;;;1.40;99.90;;;;;;5048859;28;20189;-79
2021/11/21 07:49:10;;;;;;;48.40;12.82;;;1.50;99.90;;;;;;5048871;28;20598;-77
2021/11/21 07:51:36;;;;;;;17.42;11.15;;;1.40;99.90;;;;;;5047963;28;20191;-77
2021/11/21 07:54:02;;;;;;;24.17;12.38;;;1.90;99.90;;;;;;5049036;28;20166;-77
2021/11/21 07:56:28;;;;;;;30.70;14.85;;;2.20;99.90;;;;;;5048919;28;20216;-76
2021/11/21 07:58:55;;;;;;;32.38;12.73;;;2.50;99.90;;;;;;5048942;28;20192;-77
2021/11/21 08:01:21;;;;;;;38.03;14.18;;;2.20;99.90;;;;;;5047654;28;20252;-76
2021/11/21 08:03:47;;;;;;;37.83;16.70;;;1.80;99.90;;;;;;5048468;28;20409;-76
2021/11/21 08:06:12;;;;;;;32.90;14.38;;;1.60;99.90;;;;;;5049217;28;20165;-76
2021/11/21 08:08:38;;;;;;;27.35;13.20;;;1.80;99.90;;;;;;5048815;28;20249;-76
2021/11/21 08:11:06;;;;;;;19.20;12.65;;;2.00;99.90;;;;;;5049338;28;20154;-76
2021/11/21 08:13:32;;;;;;;23.95;12.82;;;2.10;99.90;;;;;;5049009;28;20161;-76
2021/11/21 08:15:58;;;;;;;20.05;13.82;;;2.10;99.90;;;;;;5052941;28;20168;-77
2021/11/21 08:18:24;;;;;;;28.52;14.45;;;2.10;99.90;;;;;;5052804;28;20162;-76
2021/11/21 08:20:53;;;;;;;21.13;13.32;;;2.40;99.90;;;;;;5058867;28;20212;-76
2021/11/21 08:23:19;;;;;;;25.02;13.45;;;2.50;99.90;;;;;;5072745;28;20176;-76
2021/11/21 08:25:45;;;;;;;20.85;12.00;;;2.80;99.90;;;;;;5069908;28;20193;-76
2021/11/21 08:28:14;;;;;;;24.85;14.80;;;3.10;99.90;;;;;;5050981;28;20236;-76
2021/11/21 08:30:40;;;;;;;25.17;13.95;;;3.20;99.90;;;;;;5064315;28;20199;-76
2021/11/21 08:33:09;;;;;;;24.13;14.00;;;3.20;99.90;;;;;;5071175;28;20219;-76
2021/11/21 08:35:36;;;;;;;28.05;15.05;;;3.00;99.90;;;;;;5070941;28;20172;-77
2021/11/21 08:38:03;;;;;;;34.65;13.70;;;2.80;99.90;;;;;;5070595;28;20238;-76
2021/11/21 08:40:29;;;;;;;23.48;13.50;;;2.50;99.90;;;;;;5070588;28;20270;-76
2021/11/21 08:43:00;;;;;;;25.95;13.65;;;2.40;99.90;;;;;;5063274;28;20200;-78
2021/11/21 08:45:27;;;;;;;22.75;13.75;;;2.50;99.90;;;;;;5072174;28;20632;-77
2021/11/21 08:47:54;;;;;;;20.13;12.55;;;2.40;99.90;;;;;;5072128;28;20198;-77
2021/11/21 08:50:21;;;;;;;21.52;12.88;;;2.50;99.90;;;;;;5072127;28;20157;-77
2021/11/21 08:52:47;;;;;;;34.75;15.93;;;2.30;99.90;;;;;;5065300;28;20201;-77
2021/11/21 08:55:15;;;;;;;24.70;13.65;;;2.20;99.90;;;;;;5071961;28;20163;-78
2021/11/21 08:57:42;;;;;;;26.42;14.82;;;2.20;99.90;;;;;;5062030;28;20315;-77
2021/11/21 09:00:09;;;;;;;26.83;13.15;;;2.40;99.90;;;;;;5083184;28;20200;-77
2021/11/21 09:02:37;;;;;;;23.75;14.57;;;2.70;99.90;;;;;;5090245;28;20164;-77
2021/11/21 09:05:06;;;;;;;28.02;15.63;;;2.80;99.90;;;;;;5088658;28;20183;-77
2021/11/21 09:07:34;;;;;;;22.92;14.05;;;2.90;99.90;;;;;;5090976;28;20198;-77
2021/11/21 09:10:00;;;;;;;22.73;14.45;;;3.00;99.90;;;;;;5091593;28;20661;-77
2021/11/21 09:12:26;;;;;;;23.88;14.23;;;3.00;99.90;;;;;;5090643;28;20172;-78
2021/11/21 09:14:53;;;;;;;26.25;14.13;;;3.30;99.90;;;;;;5091856;28;20243;-77
2021/11/21 09:17:19;;;;;;;22.83;14.45;;;3.60;99.90;;;;;;5090573;28;20175;-77
2021/11/21 09:19:45;;;;;;;23.98;13.52;;;3.50;99.90;;;;;;5091982;28;20672;-77
2021/11/21 09:22:11;;;;;;;23.92;12.27;;;3.30;99.90;;;;;;5090636;28;20179;-79
2021/11/21 09:24:37;;;;;;;24.13;14.68;;;3.20;99.90;;;;;;5089500;28;20402;-77
2021/11/21 09:27:03;;;;;;;35.55;13.38;;;3.00;99.90;;;;;;5091886;28;20210;-78
2021/11/21 09:29:28;;;;;;;20.92;12.20;;;2.90;99.90;;;;;;5085374;28;20197;-78
2021/11/21 09:31:54;;;;;;;22.58;11.45;;;3.00;99.90;;;;;;5059409;28;20181;-78
2021/11/21 09:34:20;;;;;;;19.20;11.13;;;3.00;99.90;;;;;;5050504;28;20162;-78
2021/11/21 09:36:46;;;;;;;18.77;11.05;;;3.30;99.90;;;;;;5051871;28;20154;-78
2021/11/21 09:39:12;;;;;;;25.88;11.90;;;3.60;99.90;;;;;;5050792;28;20201;-78
2021/11/21 09:41:39;;;;;;;28.75;12.85;;;4.00;99.90;;;;;;5050114;28;20173;-78
2021/11/21 09:44:06;;;;;;;26.13;11.90;;;4.20;99.90;;;;;;5050143;28;20535;-77
2021/11/21 09:46:33;;;;;;;36.90;13.55;;;3.90;99.90;;;;;;5050152;28;20165;-79
2021/11/21 09:48:59;;;;;;;28.08;14.55;;;3.80;99.90;;;;;;5050015;28;20569;-78
2021/11/21 09:51:25;;;;;;;27.48;13.10;;;3.70;99.90;;;;;;5050227;28;20166;-80
2021/11/21 09:53:51;;;;;;;25.70;12.38;;;3.80;99.90;;;;;;5050055;28;20193;-79
2021/11/21 09:56:17;;;;;;;22.23;12.55;;;4.10;99.90;;;;;;5049748;28;20231;-77
2021/11/21 09:58:44;;;;;;;23.77;12.30;;;4.00;99.90;;;;;;5049712;28;20208;-78
2021/11/21 10:01:33;;;;;;;19.58;12.20;;;4.00;99.90;;;;;;5054687;28;20184;-78
2021/11/21 10:04:00;;;;;;;19.80;11.20;;;4.30;99.90;;;;;;5054977;28;20231;-80
2021/11/21 10:06:48;;;;;;;17.75;12.07;;;4.30;99.90;;;;;;5051177;28;20157;-79
2021/11/21 10:09:18;;;;;;;18.33;10.88;;;4.20;99.90;;;;;;5050758;28;20248;-78
2021/11/21 10:12:02;;;;;;;17.30;11.90;;;4.40;99.90;;;;;;5050713;28;20177;-79
2021/11/21 10:14:32;;;;;;;15.68;10.07;;;5.10;99.90;;;;;;5050364;28;20176;-76
2021/11/21 10:16:58;;;;;;;22.30;11.60;;;5.80;99.90;;;;;;5073520;28;20216;-74
2021/11/21 10:19:24;;;;;;;19.92;12.73;;;6.50;99.90;;;;;;5069862;28;20238;-75
2021/11/21 10:21:56;;;;;;;18.42;11.93;;;6.90;99.90;;;;;;5056616;28;20177;-75
2021/11/21 10:24:31;;;;;;;15.13;10.45;;;6.50;99.90;;;;;;5050105;28;20166;-75
2021/11/21 10:27:29;;;;;;;17.00;10.75;;;6.10;99.90;;;;;;5050053;28;20554;-75
2021/11/21 10:30:02;;;;;;;15.90;9.60;;;5.60;99.90;;;;;;5031041;28;20400;-75
2021/11/21 10:32:34;;;;;;;15.35;9.07;;;7.00;99.90;;;;;;5040560;28;20220;-75
2021/11/21 10:35:05;;;;;;;13.77;8.68;;;8.20;99.90;;;;;;5057066;28;20180;-75
2021/11/21 10:37:37;;;;;;;13.32;8.75;;;8.70;99.90;;;;;;5049938;28;20287;-75
2021/11/21 10:40:20;;;;;;;13.25;8.93;;;8.00;99.90;;;;;;5067988;28;20287;-75
2021/11/21 10:42:50;;;;;;;14.70;9.07;;;8.30;99.90;;;;;;5068075;28;20169;-75
2021/11/21 10:45:23;;;;;;;14.98;9.05;;;7.90;99.90;;;;;;5067876;28;20189;-74
2021/11/21 10:47:52;;;;;;;16.13;9.55;;;8.50;99.90;;;;;;5051044;28;20231;-74
2021/11/21 10:50:28;;;;;;;12.85;8.77;;;9.40;99.90;;;;;;5050918;28;20203;-74
2021/11/21 10:52:54;;;;;;;11.02;8.20;;;9.70;99.90;;;;;;5067572;28;20184;-72
2021/11/21 10:55:20;;;;;;;8.95;7.38;;;10.80;99.90;;;;;;5050699;28;20164;-73
2021/11/21 10:57:46;;;;;;;9.73;7.18;;;11.10;99.90;;;;;;5066451;28;20238;-75
2021/11/21 11:00:21;;;;;;;11.13;7.80;;;11.90;99.90;;;;;;5049149;28;20301;-74
2021/11/21 11:02:48;;;;;;;9.35;6.38;;;12.70;99.90;;;;;;5055147;28;20681;-75
2021/11/21 11:05:21;;;;;;;8.35;6.40;;;12.70;99.90;;;;;;5055410;28;20184;-74
2021/11/21 11:07:47;;;;;;;9.80;7.47;;;13.10;99.90;;;;;;5054966;28;20200;-75
2021/11/21 11:10:36;;;;;;;9.70;7.00;;;12.30;99.90;;;;;;5047833;28;20200;-75
2021/11/21 11:13:11;;;;;;;7.72;6.20;;;10.90;99.90;;;;;;5047179;28;20173;-73
2021/11/21 11:15:40;;;;;;;10.68;7.88;;;10.00;99.90;;;;;;5047692;28;20244;-75
2021/11/21 11:18:15;;;;;;;12.35;7.72;;;10.20;99.90;;;;;;5048992;28;20161;-74
2021/11/21 11:20:50;;;;;;;10.13;7.45;;;10.30;99.90;;;;;;5064944;28;20196;-76
2021/11/21 11:23:19;;;;;;;9.88;6.40;;;10.30;99.90;;;;;;5068577;28;20259;-77
2021/11/21 11:25:46;;;;;;;10.35;6.47;;;10.60;99.90;;;;;;5067467;28;20176;-77
2021/11/21 11:28:25;;;;;;;10.30;6.20;;;10.70;99.90;;;;;;5067272;28;20200;-77
2021/11/21 11:30:53;;;;;;;9.73;6.70;;;10.50;99.90;;;;;;5068764;28;20157;-77
2021/11/21 11:33:25;;;;;;;9.20;6.18;;;10.30;99.90;;;;;;5068669;28;20203;-75
2021/11/21 11:35:56;;;;;;;11.07;6.82;;;9.50;99.90;;;;;;5068728;28;20520;-75
2021/11/21 11:38:28;;;;;;;8.55;6.15;;;10.20;99.90;;;;;;5068715;28;20153;-76
2021/11/21 11:41:01;;;;;;;7.55;5.28;;;10.40;99.90;;;;;;5068946;28;20149;-74
2021/11/21 11:43:46;;;;;;;11.30;5.15;;;9.80;99.90;;;;;;5067664;28;20242;-75
2021/11/21 11:46:18;;;;;;;8.93;5.43;;;9.90;99.90;;;;;;5067394;28;20177;-80
2021/11/21 11:48:49;;;;;;;7.50;4.90;;;9.90;99.90;;;;;;5068840;28;20192;-77
2021/11/21 11:51:49;;;;;;;8.65;5.50;;;10.00;99.90;;;;;;5067592;28;20184;-75
2021/11/21 11:54:15;;;;;;;11.48;5.45;;;10.40;99.90;;;;;;5068262;28;20276;-79
2021/11/21 11:56:47;;;;;;;8.20;6.00;;;10.50;99.90;;;;;;5067296;28;20594;-78
2021/11/21 11:59:24;;;;;;;9.05;6.35;;;10.60;99.90;;;;;;5055787;28;20185;-77
2021/11/21 12:01:51;;;;;;;10.82;7.55;;;10.80;99.90;;;;;;5047606;28;20165;-78
2021/11/21 12:04:17;;;;;;;9.98;6.30;;;10.50;99.90;;;;;;5048791;28;20200;-78
2021/11/21 12:06:49;;;;;;;8.02;5.88;;;10.20;99.90;;;;;;5047330;28;20177;-78
2021/11/21 12:09:25;;;;;;;9.40;6.15;;;10.10;99.90;;;;;;5047497;28;20158;-79
2021/11/21 12:11:59;;;;;;;11.43;5.65;;;10.30;99.90;;;;;;5047639;28;20192;-77
2021/11/21 12:14:37;;;;;;;10.48;6.20;;;10.00;99.90;;;;;;5048627;28;20219;-75
2021/11/21 12:17:16;;;;;;;11.27;6.40;;;9.60;99.90;;;;;;5048703;28;20215;-75
2021/11/21 12:19:47;;;;;;;13.05;6.60;;;9.10;99.90;;;;;;5048759;28;20163;-79
2021/11/21 12:22:29;;;;;;;12.45;7.03;;;8.90;99.90;;;;;;5047264;28;20170;-74
2021/11/21 12:25:26;;;;;;;8.98;6.63;;;8.30;99.90;;;;;;5047000;28;20220;-74
2021/11/21 12:28:00;;;;;;;8.60;5.72;;;8.20;99.90;;;;;;5048974;28;20220;-75
2021/11/21 12:30:34;;;;;;;9.15;6.18;;;8.40;99.90;;;;;;5064722;28;20176;-75
2021/11/21 12:33:02;;;;;;;9.52;6.85;;;8.60;99.90;;;;;;5046896;28;20201;-74
2021/11/21 12:35:36;;;;;;;11.02;6.85;;;8.90;99.90;;;;;;5056163;28;20244;-74
2021/11/21 12:38:20;;;;;;;9.45;6.63;;;8.80;99.90;;;;;;5059350;28;20174;-74
2021/11/21 12:40:47;;;;;;;13.82;6.63;;;8.40;99.90;;;;;;5047993;28;20161;-74
2021/11/21 12:43:18;;;;;;;12.25;6.72;;;8.20;99.90;;;;;;5049516;28;20216;-74